sensor_id;sensor_type;location;lat;lon;timestamp;P1;durP1;ratioP1;P2;durP2;ratioP2
40945;SDS011;55635;50.264;11.918;2023-09-19T00:00:36;5.55;;;1.98;;
40945;SDS011;55635;50.264;11.918;2023-09-19T00:03:17;2.45;;;1.85;;
40945;SDS011;55635;50.264;11.918;2023-09-19T00:05:59;2.70;;;2.00;;
40945;SDS011;55635;50.264;11.918;2023-09-19T00:08:40;3.50;;;1.90;;
40945;SDS011;55635;50.264;11.918;2023-09-19T00:11:24;4.68;;;2.40;;
40945;SDS011;55635;50.264;11.918;2023-09-19T00:14:06;2.90;;;2.50;;
40945;SDS011;55635;50.264;11.918;2023-09-19T00:16:48;3.92;;;2.38;;
40945;SDS011;55635;50.264;11.918;2023-09-19T00:19:29;2.63;;;2.42;;
40945;SDS011;55635;50.264;11.918;2023-09-19T00:22:10;4.18;;;2.88;;
40945;SDS011;55635;50.264;11.918;2023-09-19T00:24:53;5.85;;;2.72;;
40945;SDS011;55635;50.264;11.918;2023-09-19T00:27:35;4.53;;;2.30;;
40945;SDS011;55635;50.264;11.918;2023-09-19T00:30:21;5.68;;;3.30;;
40945;SDS011;55635;50.264;11.918;2023-09-19T00:33:04;5.95;;;2.70;;
40945;SDS011;55635;50.264;11.918;2023-09-19T00:35:48;4.80;;;2.83;;
40945;SDS011;55635;50.264;11.918;2023-09-19T00:38:29;3.08;;;2.85;;
40945;SDS011;55635;50.264;11.918;2023-09-19T00:41:11;3.25;;;2.95;;
40945;SDS011;55635;50.264;11.918;2023-09-19T00:43:53;13.90;;;3.70;;
40945;SDS011;55635;50.264;11.918;2023-09-19T00:46:33;5.63;;;2.63;;
40945;SDS011;55635;50.264;11.918;2023-09-19T00:49:14;5.55;;;2.50;;
40945;SDS011;55635;50.264;11.918;2023-09-19T00:51:56;3.03;;;2.72;;
40945;SDS011;55635;50.264;11.918;2023-09-19T00:54:37;5.05;;;2.65;;
40945;SDS011;55635;50.264;11.918;2023-09-19T00:57:19;7.15;;;2.83;;
40945;SDS011;55635;50.264;11.918;2023-09-19T01:00:00;3.45;;;2.97;;
40945;SDS011;55635;50.264;11.918;2023-09-19T01:02:47;3.63;;;2.88;;
40945;SDS011;55635;50.264;11.918;2023-09-19T01:05:28;3.47;;;2.67;;
40945;SDS011;55635;50.264;11.918;2023-09-19T01:08:10;2.70;;;2.50;;
40945;SDS011;55635;50.264;11.918;2023-09-19T01:10:59;4.72;;;2.70;;
40945;SDS011;55635;50.264;11.918;2023-09-19T01:17:00;4.88;;;3.10;;
40945;SDS011;55635;50.264;11.918;2023-09-19T01:23:17;6.80;;;3.45;;
40945;SDS011;55635;50.264;11.918;2023-09-19T01:26:43;6.38;;;3.25;;
40945;SDS011;55635;50.264;11.918;2023-09-19T01:29:48;2.92;;;2.63;;
40945;SDS011;55635;50.264;11.918;2023-09-19T01:32:29;3.45;;;2.50;;
40945;SDS011;55635;50.264;11.918;2023-09-19T01:35:12;2.75;;;2.30;;
40945;SDS011;55635;50.264;11.918;2023-09-19T01:37:53;5.00;;;3.08;;
40945;SDS011;55635;50.264;11.918;2023-09-19T01:40:37;4.13;;;2.45;;
40945;SDS011;55635;50.264;11.918;2023-09-19T01:43:37;4.57;;;2.83;;
40945;SDS011;55635;50.264;11.918;2023-09-19T01:46:34;3.47;;;2.80;;
40945;SDS011;55635;50.264;11.918;2023-09-19T01:52:18;4.47;;;2.97;;
40945;SDS011;55635;50.264;11.918;2023-09-19T01:55:04;4.43;;;2.55;;
40945;SDS011;55635;50.264;11.918;2023-09-19T02:01:24;2.85;;;2.60;;
40945;SDS011;55635;50.264;11.918;2023-09-19T02:04:07;5.45;;;2.65;;
40945;SDS011;55635;50.264;11.918;2023-09-19T02:06:48;5.88;;;2.65;;
40945;SDS011;55635;50.264;11.918;2023-09-19T02:09:28;3.13;;;2.72;;
40945;SDS011;55635;50.264;11.918;2023-09-19T02:12:09;4.50;;;2.40;;
40945;SDS011;55635;50.264;11.918;2023-09-19T02:14:51;9.38;;;2.90;;
40945;SDS011;55635;50.264;11.918;2023-09-19T02:17:31;4.78;;;2.50;;
40945;SDS011;55635;50.264;11.918;2023-09-19T02:20:13;2.47;;;2.28;;
40945;SDS011;55635;50.264;11.918;2023-09-19T02:22:57;2.95;;;2.63;;
40945;SDS011;55635;50.264;11.918;2023-09-19T02:25:39;5.28;;;2.58;;
40945;SDS011;55635;50.264;11.918;2023-09-19T02:28:21;5.35;;;2.67;;
40945;SDS011;55635;50.264;11.918;2023-09-19T02:31:02;3.95;;;2.80;;
40945;SDS011;55635;50.264;11.918;2023-09-19T02:33:47;3.25;;;2.60;;
40945;SDS011;55635;50.264;11.918;2023-09-19T02:36:28;3.45;;;2.53;;
40945;SDS011;55635;50.264;11.918;2023-09-19T02:39:11;4.10;;;2.75;;
40945;SDS011;55635;50.264;11.918;2023-09-19T02:41:52;5.00;;;2.47;;
40945;SDS011;55635;50.264;11.918;2023-09-19T02:44:33;4.35;;;2.63;;
40945;SDS011;55635;50.264;11.918;2023-09-19T02:47:15;3.60;;;2.47;;
40945;SDS011;55635;50.264;11.918;2023-09-19T02:49:56;3.30;;;2.10;;
40945;SDS011;55635;50.264;11.918;2023-09-19T02:52:37;3.70;;;2.30;;
40945;SDS011;55635;50.264;11.918;2023-09-19T02:55:19;5.10;;;2.00;;
40945;SDS011;55635;50.264;11.918;2023-09-19T02:58:02;3.92;;;1.77;;
40945;SDS011;55635;50.264;11.918;2023-09-19T03:00:45;4.35;;;2.15;;
40945;SDS011;55635;50.264;11.918;2023-09-19T03:03:30;3.47;;;2.20;;
40945;SDS011;55635;50.264;11.918;2023-09-19T03:06:11;2.00;;;1.85;;
40945;SDS011;55635;50.264;11.918;2023-09-19T03:08:54;2.75;;;2.33;;
40945;SDS011;55635;50.264;11.918;2023-09-19T03:11:36;2.90;;;2.08;;
40945;SDS011;55635;50.264;11.918;2023-09-19T03:14:20;2.67;;;2.22;;
40945;SDS011;55635;50.264;11.918;2023-09-19T03:17:02;1.98;;;1.77;;
40945;SDS011;55635;50.264;11.918;2023-09-19T03:19:45;2.20;;;2.00;;
40945;SDS011;55635;50.264;11.918;2023-09-19T03:22:27;2.70;;;1.90;;
40945;SDS011;55635;50.264;11.918;2023-09-19T03:25:08;2.40;;;2.20;;
40945;SDS011;55635;50.264;11.918;2023-09-19T03:27:56;2.45;;;1.73;;
40945;SDS011;55635;50.264;11.918;2023-09-19T03:30:38;2.10;;;1.75;;
40945;SDS011;55635;50.264;11.918;2023-09-19T03:33:20;3.92;;;2.13;;
40945;SDS011;55635;50.264;11.918;2023-09-19T03:36:02;5.13;;;2.45;;
40945;SDS011;55635;50.264;11.918;2023-09-19T03:38:47;5.15;;;1.98;;
40945;SDS011;55635;50.264;11.918;2023-09-19T03:41:28;3.75;;;2.08;;
40945;SDS011;55635;50.264;11.918;2023-09-19T03:44:09;3.33;;;2.10;;
40945;SDS011;55635;50.264;11.918;2023-09-19T03:46:50;2.13;;;2.00;;
40945;SDS011;55635;50.264;11.918;2023-09-19T03:49:31;2.85;;;2.15;;
40945;SDS011;55635;50.264;11.918;2023-09-19T03:52:13;3.58;;;2.25;;
40945;SDS011;55635;50.264;11.918;2023-09-19T03:54:56;3.40;;;2.15;;
40945;SDS011;55635;50.264;11.918;2023-09-19T03:57:37;3.58;;;2.55;;
40945;SDS011;55635;50.264;11.918;2023-09-19T04:00:18;2.40;;;2.20;;
40945;SDS011;55635;50.264;11.918;2023-09-19T04:03:01;5.35;;;2.50;;
40945;SDS011;55635;50.264;11.918;2023-09-19T04:05:49;2.58;;;2.20;;
40945;SDS011;55635;50.264;11.918;2023-09-19T04:08:31;4.93;;;2.80;;
40945;SDS011;55635;50.264;11.918;2023-09-19T04:11:12;5.18;;;2.53;;
40945;SDS011;55635;50.264;11.918;2023-09-19T04:13:53;4.47;;;2.20;;
40945;SDS011;55635;50.264;11.918;2023-09-19T04:16:34;4.55;;;2.10;;
40945;SDS011;55635;50.264;11.918;2023-09-19T04:19:15;3.92;;;2.70;;
40945;SDS011;55635;50.264;11.918;2023-09-19T04:21:57;3.53;;;2.42;;
40945;SDS011;55635;50.264;11.918;2023-09-19T04:24:38;3.55;;;2.40;;
40945;SDS011;55635;50.264;11.918;2023-09-19T04:27:19;2.72;;;2.13;;
40945;SDS011;55635;50.264;11.918;2023-09-19T04:30:00;5.82;;;2.20;;
40945;SDS011;55635;50.264;11.918;2023-09-19T04:32:45;3.08;;;2.67;;
40945;SDS011;55635;50.264;11.918;2023-09-19T04:35:30;4.13;;;2.20;;
40945;SDS011;55635;50.264;11.918;2023-09-19T04:38:11;4.30;;;2.97;;
40945;SDS011;55635;50.264;11.918;2023-09-19T04:40:56;3.13;;;2.80;;
40945;SDS011;55635;50.264;11.918;2023-09-19T04:43:39;5.55;;;3.33;;
40945;SDS011;55635;50.264;11.918;2023-09-19T04:46:19;2.78;;;2.58;;
40945;SDS011;55635;50.264;11.918;2023-09-19T04:49:00;6.68;;;2.83;;
40945;SDS011;55635;50.264;11.918;2023-09-19T04:51:42;3.22;;;2.92;;
40945;SDS011;55635;50.264;11.918;2023-09-19T04:54:23;3.85;;;2.47;;
40945;SDS011;55635;50.264;11.918;2023-09-19T04:57:04;5.45;;;2.70;;
40945;SDS011;55635;50.264;11.918;2023-09-19T04:59:46;6.75;;;2.55;;
40945;SDS011;55635;50.264;11.918;2023-09-19T05:02:28;3.72;;;2.58;;
40945;SDS011;55635;50.264;11.918;2023-09-19T05:05:11;3.47;;;2.70;;
40945;SDS011;55635;50.264;11.918;2023-09-19T05:07:56;2.83;;;2.50;;
40945;SDS011;55635;50.264;11.918;2023-09-19T05:10:39;2.75;;;2.50;;
40945;SDS011;55635;50.264;11.918;2023-09-19T05:13:20;3.20;;;2.80;;
40945;SDS011;55635;50.264;11.918;2023-09-19T05:16:01;5.13;;;3.38;;
40945;SDS011;55635;50.264;11.918;2023-09-19T05:18:42;3.05;;;2.72;;
40945;SDS011;55635;50.264;11.918;2023-09-19T05:21:23;5.28;;;2.75;;
40945;SDS011;55635;50.264;11.918;2023-09-19T05:24:05;5.13;;;2.95;;
40945;SDS011;55635;50.264;11.918;2023-09-19T05:26:48;3.75;;;2.67;;
40945;SDS011;55635;50.264;11.918;2023-09-19T05:29:29;3.35;;;3.00;;
40945;SDS011;55635;50.264;11.918;2023-09-19T05:32:11;4.07;;;3.15;;
40945;SDS011;55635;50.264;11.918;2023-09-19T05:34:52;3.10;;;2.33;;
40945;SDS011;55635;50.264;11.918;2023-09-19T05:37:33;4.03;;;2.40;;
40945;SDS011;55635;50.264;11.918;2023-09-19T05:40:18;3.83;;;2.38;;
40945;SDS011;55635;50.264;11.918;2023-09-19T05:42:59;2.45;;;2.22;;
40945;SDS011;55635;50.264;11.918;2023-09-19T05:45:40;3.55;;;2.40;;
40945;SDS011;55635;50.264;11.918;2023-09-19T05:48:21;2.92;;;2.60;;
40945;SDS011;55635;50.264;11.918;2023-09-19T05:51:02;3.25;;;2.72;;
40945;SDS011;55635;50.264;11.918;2023-09-19T05:53:43;3.15;;;2.70;;
40945;SDS011;55635;50.264;11.918;2023-09-19T05:56:24;3.22;;;2.85;;
40945;SDS011;55635;50.264;11.918;2023-09-19T05:59:05;5.60;;;3.08;;
40945;SDS011;55635;50.264;11.918;2023-09-19T06:01:46;5.75;;;2.55;;
40945;SDS011;55635;50.264;11.918;2023-09-19T06:04:27;6.28;;;3.10;;
40945;SDS011;55635;50.264;11.918;2023-09-19T06:07:08;7.25;;;2.70;;
40945;SDS011;55635;50.264;11.918;2023-09-19T06:09:49;3.22;;;2.83;;
40945;SDS011;55635;50.264;11.918;2023-09-19T06:12:30;2.95;;;2.40;;
40945;SDS011;55635;50.264;11.918;2023-09-19T06:15:13;2.92;;;2.33;;
40945;SDS011;55635;50.264;11.918;2023-09-19T06:18:03;4.78;;;2.10;;
40945;SDS011;55635;50.264;11.918;2023-09-19T06:20:48;2.28;;;2.08;;
40945;SDS011;55635;50.264;11.918;2023-09-19T06:23:31;3.33;;;2.10;;
40945;SDS011;55635;50.264;11.918;2023-09-19T06:26:12;4.43;;;1.80;;
40945;SDS011;55635;50.264;11.918;2023-09-19T06:28:53;3.80;;;2.20;;
40945;SDS011;55635;50.264;11.918;2023-09-19T06:31:35;3.05;;;2.03;;
40945;SDS011;55635;50.264;11.918;2023-09-19T06:34:19;3.90;;;2.03;;
40945;SDS011;55635;50.264;11.918;2023-09-19T06:36:59;3.13;;;2.05;;
40945;SDS011;55635;50.264;11.918;2023-09-19T06:39:41;3.05;;;1.92;;
40945;SDS011;55635;50.264;11.918;2023-09-19T06:42:22;2.28;;;1.80;;
40945;SDS011;55635;50.264;11.918;2023-09-19T06:45:04;2.88;;;1.95;;
40945;SDS011;55635;50.264;11.918;2023-09-19T06:47:46;2.63;;;1.40;;
40945;SDS011;55635;50.264;11.918;2023-09-19T06:50:34;1.35;;;1.25;;
40945;SDS011;55635;50.264;11.918;2023-09-19T06:53:16;2.17;;;1.40;;
40945;SDS011;55635;50.264;11.918;2023-09-19T06:55:58;4.47;;;1.48;;
40945;SDS011;55635;50.264;11.918;2023-09-19T06:58:39;2.30;;;1.30;;
40945;SDS011;55635;50.264;11.918;2023-09-19T07:01:19;1.20;;;1.10;;
40945;SDS011;55635;50.264;11.918;2023-09-19T07:04:00;1.83;;;1.25;;
40945;SDS011;55635;50.264;11.918;2023-09-19T07:06:41;1.50;;;1.20;;
40945;SDS011;55635;50.264;11.918;2023-09-19T07:09:22;4.22;;;1.30;;
40945;SDS011;55635;50.264;11.918;2023-09-19T07:12:04;3.53;;;1.17;;
40945;SDS011;55635;50.264;11.918;2023-09-19T07:14:45;1.75;;;1.30;;
40945;SDS011;55635;50.264;11.918;2023-09-19T07:17:26;1.67;;;1.13;;
40945;SDS011;55635;50.264;11.918;2023-09-19T07:20:08;5.30;;;1.52;;
40945;SDS011;55635;50.264;11.918;2023-09-19T07:22:50;3.97;;;1.35;;
40945;SDS011;55635;50.264;11.918;2023-09-19T07:25:31;1.85;;;1.05;;
40945;SDS011;55635;50.264;11.918;2023-09-19T07:28:12;1.70;;;1.20;;
40945;SDS011;55635;50.264;11.918;2023-09-19T07:30:53;4.55;;;1.02;;
40945;SDS011;55635;50.264;11.918;2023-09-19T07:33:34;1.63;;;1.10;;
40945;SDS011;55635;50.264;11.918;2023-09-19T07:36:16;4.32;;;1.38;;
40945;SDS011;55635;50.264;11.918;2023-09-19T07:38:57;3.58;;;1.15;;
40945;SDS011;55635;50.264;11.918;2023-09-19T07:41:38;2.90;;;1.13;;
40945;SDS011;55635;50.264;11.918;2023-09-19T07:44:19;1.55;;;1.08;;
40945;SDS011;55635;50.264;11.918;2023-09-19T07:47:00;2.25;;;0.80;;
40945;SDS011;55635;50.264;11.918;2023-09-19T07:49:45;2.03;;;0.90;;
40945;SDS011;55635;50.264;11.918;2023-09-19T07:52:28;1.90;;;1.05;;
40945;SDS011;55635;50.264;11.918;2023-09-19T07:55:09;5.22;;;1.02;;
40945;SDS011;55635;50.264;11.918;2023-09-19T07:57:51;1.05;;;0.95;;
40945;SDS011;55635;50.264;11.918;2023-09-19T08:00:33;3.88;;;1.05;;
40945;SDS011;55635;50.264;11.918;2023-09-19T08:03:15;2.00;;;0.90;;
40945;SDS011;55635;50.264;11.918;2023-09-19T08:05:56;0.93;;;0.77;;
40945;SDS011;55635;50.264;11.918;2023-09-19T08:08:38;1.92;;;0.82;;
40945;SDS011;55635;50.264;11.918;2023-09-19T08:11:19;2.80;;;1.00;;
40945;SDS011;55635;50.264;11.918;2023-09-19T08:14:01;1.02;;;0.90;;
40945;SDS011;55635;50.264;11.918;2023-09-19T08:16:42;0.88;;;0.80;;
40945;SDS011;55635;50.264;11.918;2023-09-19T08:19:23;6.95;;;1.25;;
40945;SDS011;55635;50.264;11.918;2023-09-19T08:22:08;1.25;;;0.90;;
40945;SDS011;55635;50.264;11.918;2023-09-19T08:24:50;11.20;;;1.67;;
40945;SDS011;55635;50.264;11.918;2023-09-19T08:27:31;1.40;;;0.90;;
40945;SDS011;55635;50.264;11.918;2023-09-19T08:30:12;4.68;;;0.90;;
40945;SDS011;55635;50.264;11.918;2023-09-19T08:33:01;1.55;;;1.00;;
40945;SDS011;55635;50.264;11.918;2023-09-19T08:35:46;1.83;;;0.73;;
40945;SDS011;55635;50.264;11.918;2023-09-19T08:38:27;3.40;;;0.75;;
40945;SDS011;55635;50.264;11.918;2023-09-19T08:41:09;1.30;;;1.02;;
40945;SDS011;55635;50.264;11.918;2023-09-19T08:43:50;1.13;;;0.93;;
40945;SDS011;55635;50.264;11.918;2023-09-19T08:46:31;2.13;;;1.02;;
40945;SDS011;55635;50.264;11.918;2023-09-19T08:49:27;2.13;;;0.90;;
40945;SDS011;55635;50.264;11.918;2023-09-19T08:52:27;1.77;;;1.08;;
40945;SDS011;55635;50.264;11.918;2023-09-19T08:55:17;2.92;;;0.85;;
40945;SDS011;55635;50.264;11.918;2023-09-19T08:58:03;2.10;;;1.08;;
40945;SDS011;55635;50.264;11.918;2023-09-19T09:00:47;3.47;;;0.80;;
40945;SDS011;55635;50.264;11.918;2023-09-19T09:03:32;2.67;;;0.90;;
40945;SDS011;55635;50.264;11.918;2023-09-19T09:06:15;2.97;;;0.80;;
40945;SDS011;55635;50.264;11.918;2023-09-19T09:08:57;4.32;;;0.88;;
40945;SDS011;55635;50.264;11.918;2023-09-19T09:11:38;0.82;;;0.50;;
40945;SDS011;55635;50.264;11.918;2023-09-19T09:14:20;2.63;;;0.70;;
40945;SDS011;55635;50.264;11.918;2023-09-19T09:17:02;2.28;;;0.70;;
40945;SDS011;55635;50.264;11.918;2023-09-19T09:19:43;5.10;;;1.10;;
40945;SDS011;55635;50.264;11.918;2023-09-19T09:22:24;1.75;;;0.68;;
40945;SDS011;55635;50.264;11.918;2023-09-19T09:25:05;2.45;;;0.80;;
40945;SDS011;55635;50.264;11.918;2023-09-19T09:27:48;1.48;;;1.20;;
40945;SDS011;55635;50.264;11.918;2023-09-19T09:30:42;1.50;;;0.68;;
40945;SDS011;55635;50.264;11.918;2023-09-19T09:33:23;0.82;;;0.60;;
40945;SDS011;55635;50.264;11.918;2023-09-19T09:36:05;1.90;;;0.80;;
40945;SDS011;55635;50.264;11.918;2023-09-19T09:38:47;2.22;;;0.70;;
40945;SDS011;55635;50.264;11.918;2023-09-19T09:41:38;4.70;;;0.80;;
40945;SDS011;55635;50.264;11.918;2023-09-19T09:44:19;0.73;;;0.60;;
40945;SDS011;55635;50.264;11.918;2023-09-19T09:47:01;3.53;;;0.90;;
40945;SDS011;55635;50.264;11.918;2023-09-19T09:50:00;2.15;;;0.60;;
40945;SDS011;55635;50.264;11.918;2023-09-19T09:52:47;3.03;;;0.75;;
40945;SDS011;55635;50.264;11.918;2023-09-19T09:55:28;0.90;;;0.80;;
40945;SDS011;55635;50.264;11.918;2023-09-19T09:58:16;3.20;;;0.82;;
40945;SDS011;55635;50.264;11.918;2023-09-19T10:00:59;2.08;;;0.90;;
40945;SDS011;55635;50.264;11.918;2023-09-19T10:03:42;1.65;;;0.73;;
40945;SDS011;55635;50.264;11.918;2023-09-19T10:06:39;0.60;;;0.60;;
40945;SDS011;55635;50.264;11.918;2023-09-19T10:09:27;1.77;;;0.88;;
40945;SDS011;55635;50.264;11.918;2023-09-19T10:12:11;1.48;;;0.90;;
40945;SDS011;55635;50.264;11.918;2023-09-19T10:14:56;0.90;;;0.80;;
40945;SDS011;55635;50.264;11.918;2023-09-19T10:17:41;1.13;;;0.80;;
40945;SDS011;55635;50.264;11.918;2023-09-19T10:20:24;1.27;;;0.75;;
40945;SDS011;55635;50.264;11.918;2023-09-19T10:23:12;3.53;;;0.80;;
40945;SDS011;55635;50.264;11.918;2023-09-19T10:25:53;1.35;;;0.77;;
40945;SDS011;55635;50.264;11.918;2023-09-19T10:28:35;0.77;;;0.70;;
40945;SDS011;55635;50.264;11.918;2023-09-19T10:31:21;0.95;;;0.68;;
40945;SDS011;55635;50.264;11.918;2023-09-19T10:34:05;0.60;;;0.60;;
40945;SDS011;55635;50.264;11.918;2023-09-19T10:36:49;2.50;;;0.70;;
40945;SDS011;55635;50.264;11.918;2023-09-19T10:39:32;2.25;;;0.77;;
40945;SDS011;55635;50.264;11.918;2023-09-19T10:42:14;1.73;;;0.60;;
40945;SDS011;55635;50.264;11.918;2023-09-19T10:44:59;1.42;;;0.55;;
40945;SDS011;55635;50.264;11.918;2023-09-19T10:47:43;2.28;;;0.90;;
40945;SDS011;55635;50.264;11.918;2023-09-19T10:50:24;1.75;;;0.77;;
40945;SDS011;55635;50.264;11.918;2023-09-19T10:53:07;1.13;;;0.55;;
40945;SDS011;55635;50.264;11.918;2023-09-19T10:55:53;1.20;;;0.70;;
40945;SDS011;55635;50.264;11.918;2023-09-19T10:58:39;1.60;;;0.73;;
40945;SDS011;55635;50.264;11.918;2023-09-19T11:01:38;1.77;;;0.70;;
40945;SDS011;55635;50.264;11.918;2023-09-19T11:04:37;2.55;;;0.85;;
40945;SDS011;55635;50.264;11.918;2023-09-19T11:07:19;2.58;;;1.05;;
40945;SDS011;55635;50.264;11.918;2023-09-19T11:10:00;1.25;;;0.70;;
40945;SDS011;55635;50.264;11.918;2023-09-19T11:27:10;4.60;;;0.90;;
40945;SDS011;55635;50.264;11.918;2023-09-19T11:30:25;2.25;;;0.82;;
40945;SDS011;55635;50.264;11.918;2023-09-19T11:36:08;1.35;;;1.00;;
40945;SDS011;55635;50.264;11.918;2023-09-19T11:41:36;2.58;;;1.00;;
40945;SDS011;55635;50.264;11.918;2023-09-19T11:46:58;1.95;;;0.88;;
40945;SDS011;55635;50.264;11.918;2023-09-19T11:49:40;1.23;;;0.73;;
40945;SDS011;55635;50.264;11.918;2023-09-19T11:52:22;2.38;;;0.88;;
40945;SDS011;55635;50.264;11.918;2023-09-19T11:55:05;1.55;;;0.80;;
40945;SDS011;55635;50.264;11.918;2023-09-19T11:57:49;1.25;;;1.00;;
40945;SDS011;55635;50.264;11.918;2023-09-19T12:00:31;1.10;;;1.00;;
40945;SDS011;55635;50.264;11.918;2023-09-19T12:03:13;1.85;;;0.93;;
40945;SDS011;55635;50.264;11.918;2023-09-19T12:05:54;2.60;;;1.00;;
40945;SDS011;55635;50.264;11.918;2023-09-19T12:08:36;0.93;;;0.88;;
40945;SDS011;55635;50.264;11.918;2023-09-19T12:11:20;2.78;;;1.27;;
40945;SDS011;55635;50.264;11.918;2023-09-19T12:14:03;4.13;;;1.10;;
40945;SDS011;55635;50.264;11.918;2023-09-19T12:16:50;1.33;;;1.20;;
40945;SDS011;55635;50.264;11.918;2023-09-19T12:19:35;2.35;;;1.00;;
40945;SDS011;55635;50.264;11.918;2023-09-19T12:22:16;2.25;;;0.95;;
40945;SDS011;55635;50.264;11.918;2023-09-19T12:25:05;3.47;;;1.30;;
40945;SDS011;55635;50.264;11.918;2023-09-19T12:27:51;1.38;;;1.00;;
40945;SDS011;55635;50.264;11.918;2023-09-19T12:30:35;1.70;;;1.00;;
40945;SDS011;55635;50.264;11.918;2023-09-19T12:33:17;2.47;;;1.15;;
40945;SDS011;55635;50.264;11.918;2023-09-19T12:36:00;2.13;;;1.27;;
40945;SDS011;55635;50.264;11.918;2023-09-19T12:38:43;1.40;;;0.75;;
40945;SDS011;55635;50.264;11.918;2023-09-19T12:41:29;3.75;;;1.23;;
40945;SDS011;55635;50.264;11.918;2023-09-19T12:44:10;4.03;;;1.30;;
40945;SDS011;55635;50.264;11.918;2023-09-19T12:46:53;1.60;;;1.10;;
40945;SDS011;55635;50.264;11.918;2023-09-19T12:49:34;2.53;;;1.20;;
40945;SDS011;55635;50.264;11.918;2023-09-19T12:52:15;3.40;;;1.40;;
40945;SDS011;55635;50.264;11.918;2023-09-19T12:54:59;1.88;;;1.20;;
40945;SDS011;55635;50.264;11.918;2023-09-19T12:57:54;1.83;;;1.20;;
40945;SDS011;55635;50.264;11.918;2023-09-19T13:00:40;4.00;;;1.08;;
40945;SDS011;55635;50.264;11.918;2023-09-19T13:03:25;2.92;;;1.05;;
40945;SDS011;55635;50.264;11.918;2023-09-19T13:06:14;5.68;;;1.50;;
40945;SDS011;55635;50.264;11.918;2023-09-19T13:09:10;3.40;;;1.20;;
40945;SDS011;55635;50.264;11.918;2023-09-19T13:11:52;2.30;;;1.13;;
40945;SDS011;55635;50.264;11.918;2023-09-19T13:14:34;2.20;;;1.30;;
40945;SDS011;55635;50.264;11.918;2023-09-19T13:17:20;1.70;;;1.27;;
40945;SDS011;55635;50.264;11.918;2023-09-19T13:20:03;2.33;;;1.08;;
40945;SDS011;55635;50.264;11.918;2023-09-19T13:22:47;2.00;;;1.10;;
40945;SDS011;55635;50.264;11.918;2023-09-19T13:25:34;2.75;;;1.33;;
40945;SDS011;55635;50.264;11.918;2023-09-19T13:28:15;2.38;;;1.40;;
40945;SDS011;55635;50.264;11.918;2023-09-19T13:30:55;1.30;;;1.05;;
40945;SDS011;55635;50.264;11.918;2023-09-19T13:33:42;1.65;;;1.10;;
40945;SDS011;55635;50.264;11.918;2023-09-19T13:36:25;2.95;;;1.40;;
40945;SDS011;55635;50.264;11.918;2023-09-19T13:39:06;2.38;;;1.50;;
40945;SDS011;55635;50.264;11.918;2023-09-19T13:41:49;2.85;;;1.73;;
40945;SDS011;55635;50.264;11.918;2023-09-19T13:44:29;1.73;;;1.42;;
40945;SDS011;55635;50.264;11.918;2023-09-19T13:47:11;5.45;;;1.65;;
40945;SDS011;55635;50.264;11.918;2023-09-19T13:49:53;1.85;;;1.00;;
40945;SDS011;55635;50.264;11.918;2023-09-19T13:52:34;3.40;;;1.50;;
40945;SDS011;55635;50.264;11.918;2023-09-19T13:55:15;2.67;;;1.42;;
40945;SDS011;55635;50.264;11.918;2023-09-19T13:58:00;3.90;;;1.50;;
40945;SDS011;55635;50.264;11.918;2023-09-19T14:00:41;1.60;;;1.30;;
40945;SDS011;55635;50.264;11.918;2023-09-19T14:03:23;3.03;;;1.20;;
40945;SDS011;55635;50.264;11.918;2023-09-19T14:06:04;2.53;;;1.55;;
40945;SDS011;55635;50.264;11.918;2023-09-19T14:08:45;1.35;;;1.23;;
40945;SDS011;55635;50.264;11.918;2023-09-19T14:11:30;3.15;;;1.40;;
40945;SDS011;55635;50.264;11.918;2023-09-19T14:14:10;3.85;;;1.40;;
40945;SDS011;55635;50.264;11.918;2023-09-19T14:16:51;2.25;;;1.42;;
40945;SDS011;55635;50.264;11.918;2023-09-19T14:19:33;3.15;;;1.50;;
40945;SDS011;55635;50.264;11.918;2023-09-19T14:22:15;3.08;;;1.25;;
40945;SDS011;55635;50.264;11.918;2023-09-19T14:24:56;3.35;;;1.60;;
40945;SDS011;55635;50.264;11.918;2023-09-19T14:27:39;3.72;;;1.20;;
40945;SDS011;55635;50.264;11.918;2023-09-19T14:30:21;2.60;;;1.00;;
40945;SDS011;55635;50.264;11.918;2023-09-19T14:33:03;1.33;;;1.20;;
40945;SDS011;55635;50.264;11.918;2023-09-19T14:35:46;1.65;;;1.10;;
40945;SDS011;55635;50.264;11.918;2023-09-19T14:38:26;3.78;;;1.60;;
40945;SDS011;55635;50.264;11.918;2023-09-19T14:41:08;6.65;;;1.48;;
40945;SDS011;55635;50.264;11.918;2023-09-19T14:43:49;4.38;;;1.45;;
40945;SDS011;55635;50.264;11.918;2023-09-19T14:46:30;3.40;;;1.58;;
40945;SDS011;55635;50.264;11.918;2023-09-19T14:49:11;2.45;;;1.50;;
40945;SDS011;55635;50.264;11.918;2023-09-19T14:51:52;2.92;;;1.30;;
40945;SDS011;55635;50.264;11.918;2023-09-19T14:54:33;6.40;;;1.40;;
40945;SDS011;55635;50.264;11.918;2023-09-19T14:57:14;3.28;;;1.63;;
40945;SDS011;55635;50.264;11.918;2023-09-19T14:59:55;3.65;;;1.30;;
40945;SDS011;55635;50.264;11.918;2023-09-19T15:02:36;3.28;;;1.40;;
40945;SDS011;55635;50.264;11.918;2023-09-19T15:05:17;4.85;;;2.10;;
40945;SDS011;55635;50.264;11.918;2023-09-19T15:07:58;2.22;;;1.27;;
40945;SDS011;55635;50.264;11.918;2023-09-19T15:10:39;3.38;;;1.50;;
40945;SDS011;55635;50.264;11.918;2023-09-19T15:13:22;3.25;;;1.15;;
40945;SDS011;55635;50.264;11.918;2023-09-19T15:16:07;3.58;;;1.58;;
40945;SDS011;55635;50.264;11.918;2023-09-19T15:18:52;2.50;;;1.37;;
40945;SDS011;55635;50.264;11.918;2023-09-19T15:21:35;3.72;;;1.40;;
40945;SDS011;55635;50.264;11.918;2023-09-19T15:24:17;5.82;;;1.48;;
40945;SDS011;55635;50.264;11.918;2023-09-19T15:26:58;2.88;;;1.40;;
40945;SDS011;55635;50.264;11.918;2023-09-19T15:29:39;3.47;;;1.55;;
40945;SDS011;55635;50.264;11.918;2023-09-19T15:32:20;2.55;;;1.25;;
40945;SDS011;55635;50.264;11.918;2023-09-19T15:35:01;5.20;;;1.38;;
40945;SDS011;55635;50.264;11.918;2023-09-19T15:37:42;2.50;;;1.10;;
40945;SDS011;55635;50.264;11.918;2023-09-19T15:40:23;6.20;;;1.30;;
40945;SDS011;55635;50.264;11.918;2023-09-19T15:43:04;2.38;;;1.23;;
40945;SDS011;55635;50.264;11.918;2023-09-19T15:45:49;4.55;;;1.38;;
40945;SDS011;55635;50.264;11.918;2023-09-19T15:48:30;2.33;;;1.30;;
40945;SDS011;55635;50.264;11.918;2023-09-19T15:51:11;4.95;;;1.70;;
40945;SDS011;55635;50.264;11.918;2023-09-19T15:53:53;2.90;;;1.27;;
40945;SDS011;55635;50.264;11.918;2023-09-19T15:56:36;1.25;;;1.10;;
40945;SDS011;55635;50.264;11.918;2023-09-19T15:59:17;3.72;;;1.20;;
40945;SDS011;55635;50.264;11.918;2023-09-19T16:01:58;4.90;;;1.40;;
40945;SDS011;55635;50.264;11.918;2023-09-19T16:04:39;3.08;;;1.30;;
40945;SDS011;55635;50.264;11.918;2023-09-19T16:07:20;3.45;;;1.35;;
40945;SDS011;55635;50.264;11.918;2023-09-19T16:10:02;5.90;;;2.03;;
40945;SDS011;55635;50.264;11.918;2023-09-19T16:12:43;1.52;;;1.08;;
40945;SDS011;55635;50.264;11.918;2023-09-19T16:15:24;2.28;;;1.00;;
40945;SDS011;55635;50.264;11.918;2023-09-19T16:18:05;1.70;;;1.17;;
40945;SDS011;55635;50.264;11.918;2023-09-19T16:20:46;5.00;;;1.20;;
40945;SDS011;55635;50.264;11.918;2023-09-19T16:23:27;2.83;;;1.30;;
40945;SDS011;55635;50.264;11.918;2023-09-19T16:26:11;2.92;;;1.10;;
40945;SDS011;55635;50.264;11.918;2023-09-19T16:28:53;1.48;;;1.15;;
40945;SDS011;55635;50.264;11.918;2023-09-19T16:31:40;3.35;;;1.10;;
40945;SDS011;55635;50.264;11.918;2023-09-19T16:34:21;3.45;;;1.52;;
40945;SDS011;55635;50.264;11.918;2023-09-19T16:37:02;2.45;;;1.45;;
40945;SDS011;55635;50.264;11.918;2023-09-19T16:39:43;3.03;;;1.10;;
40945;SDS011;55635;50.264;11.918;2023-09-19T16:42:24;2.45;;;1.20;;